Time;durP1;ratioP1;P1;durP2;ratioP2;P2;SDS_P1;SDS_P2;PMS_P1;PMS_P2;Temp;Humidity;BMP_temperature;BMP_pressure;BME280_temperature;BME280_humidity;BME280_pressure;Samples;Min_cycle;Max_cycle;Signal;HPM_P1;HPM_P2
2022/08/15 00:00:30;;;;;;;5.73;3.07;;;23.20;99.90;;;;;;4852216;29;21052;-64
2022/08/15 00:03:01;;;;;;;6.40;3.47;;;23.10;99.90;;;;;;4848980;29;20215;-64
2022/08/15 00:05:38;;;;;;;5.43;2.97;;;23.10;99.90;;;;;;4844748;29;20838;-64
2022/08/15 00:08:09;;;;;;;3.07;2.77;;;23.00;99.90;;;;;;4848950;29;20231;-64
2022/08/15 00:11:02;;;;;;;3.10;2.90;;;23.00;99.90;;;;;;4848316;29;20228;-64
2022/08/15 00:13:51;;;;;;;3.07;2.50;;;23.00;99.90;;;;;;4852306;29;20992;-64
2022/08/15 00:16:33;;;;;;;3.43;3.10;;;23.00;99.90;;;;;;4848086;29;20243;-64
2022/08/15 00:19:07;;;;;;;4.50;2.73;;;23.00;99.90;;;;;;4846388;29;20201;-64
2022/08/15 00:21:37;;;;;;;3.13;2.83;;;23.00;99.90;;;;;;4845180;29;20283;-64
2022/08/15 00:24:09;;;;;;;2.70;2.60;;;23.10;99.90;;;;;;4844795;29;20239;-64
2022/08/15 00:26:51;;;;;;;4.93;3.20;;;23.00;99.90;;;;;;4848718;29;20211;-64
2022/08/15 00:29:25;;;;;;;3.20;2.90;;;23.00;99.90;;;;;;4857104;29;20217;-64
2022/08/15 00:32:09;;;;;;;3.87;3.40;;;23.00;99.90;;;;;;4834477;29;20319;-64
2022/08/15 00:34:58;;;;;;;6.13;3.00;;;23.00;99.90;;;;;;4841537;29;20204;-63
2022/08/15 00:37:26;;;;;;;6.77;3.40;;;22.90;99.90;;;;;;4848245;29;20298;-63
2022/08/15 00:39:55;;;;;;;3.40;3.10;;;22.80;99.90;;;;;;4845542;29;20676;-63
2022/08/15 00:42:27;;;;;;;3.73;3.00;;;22.80;99.90;;;;;;4851577;29;20264;-64
2022/08/15 00:45:10;;;;;;;4.73;3.20;;;22.80;99.90;;;;;;4849782;29;20226;-64
2022/08/15 00:50:35;;;;;;;3.00;2.90;;;22.70;99.90;;;;;;4849666;29;20250;-63
2022/08/15 00:53:11;;;;;;;5.13;3.10;;;22.70;99.90;;;;;;4850328;29;20905;-64
2022/08/15 00:55:43;;;;;;;3.53;3.20;;;22.60;99.90;;;;;;4848862;29;20203;-64
2022/08/15 00:58:17;;;;;;;3.50;2.87;;;22.60;99.90;;;;;;4846980;29;20223;-64
2022/08/15 01:01:03;;;;;;;3.23;2.93;;;22.60;99.90;;;;;;4849118;29;20267;-64
2022/08/15 01:03:35;;;;;;;2.60;2.40;;;22.50;99.90;;;;;;4853609;29;20212;-64
2022/08/15 01:06:24;;;;;;;6.30;3.13;;;22.50;99.90;;;;;;4856140;29;20217;-64
2022/08/15 01:09:01;;;;;;;4.57;2.70;;;22.60;99.90;;;;;;4843031;29;20200;-64
2022/08/15 01:11:44;;;;;;;4.67;2.93;;;22.60;99.90;;;;;;4846930;29;20990;-64
2022/08/15 01:14:14;;;;;;;3.37;3.07;;;22.50;99.90;;;;;;4851299;29;20195;-64
2022/08/15 01:17:04;;;;;;;13.47;3.57;;;22.50;99.90;;;;;;4852830;29;20684;-64
2022/08/15 01:19:42;;;;;;;8.70;3.10;;;22.40;99.90;;;;;;4854388;29;20733;-65
2022/08/15 01:22:38;;;;;;;3.30;3.10;;;22.40;99.90;;;;;;4852870;29;20203;-64
2022/08/15 01:25:13;;;;;;;4.07;2.70;;;22.40;99.90;;;;;;4846011;29;20219;-64
2022/08/15 01:28:06;;;;;;;3.17;2.87;;;22.30;99.90;;;;;;4858474;29;20731;-64
2022/08/15 01:30:39;;;;;;;4.03;2.83;;;22.30;99.90;;;;;;4846264;29;20220;-64
2022/08/15 01:33:31;;;;;;;4.27;3.20;;;22.30;99.90;;;;;;4849508;29;20230;-64
2022/08/15 01:36:00;;;;;;;3.47;2.67;;;22.30;99.90;;;;;;4844880;29;20330;-64
2022/08/15 01:38:32;;;;;;;4.43;2.63;;;22.20;99.90;;;;;;4849750;29;20565;-64
2022/08/15 01:41:28;;;;;;;3.63;3.00;;;22.20;99.90;;;;;;4842630;29;20211;-64
2022/08/15 01:44:17;;;;;;;3.57;3.10;;;22.10;99.90;;;;;;4848950;29;20279;-64
2022/08/15 01:47:07;;;;;;;4.50;2.93;;;22.10;99.90;;;;;;4846979;29;20590;-64
2022/08/15 01:49:49;;;;;;;3.93;2.90;;;22.10;99.90;;;;;;4849621;29;20212;-64
2022/08/15 01:52:32;;;;;;;3.93;2.80;;;22.10;99.90;;;;;;4850245;29;20223;-64
2022/08/15 01:55:26;;;;;;;2.60;2.50;;;22.10;99.90;;;;;;4853569;29;20210;-64
2022/08/15 01:58:05;;;;;;;3.40;3.00;;;22.10;99.90;;;;;;4849465;29;20456;-64
2022/08/15 02:00:36;;;;;;;6.50;2.70;;;22.10;99.90;;;;;;4850424;29;20303;-64
2022/08/15 02:03:11;;;;;;;5.37;3.40;;;22.00;99.90;;;;;;4847652;29;20216;-64
2022/08/15 02:05:49;;;;;;;3.73;3.00;;;21.90;99.90;;;;;;4847626;29;20211;-64
2022/08/15 02:08:25;;;;;;;3.27;2.77;;;21.90;99.90;;;;;;4849196;29;20210;-64
2022/08/15 02:11:07;;;;;;;3.73;3.00;;;21.80;99.90;;;;;;4850148;29;20219;-63
2022/08/15 02:13:54;;;;;;;3.30;2.97;;;21.80;99.90;;;;;;4852611;29;20218;-64
2022/08/15 02:16:25;;;;;;;4.03;3.20;;;21.80;99.90;;;;;;4848245;29;20228;-64
2022/08/15 02:18:54;;;;;;;3.43;3.13;;;21.80;99.90;;;;;;4851377;29;20206;-64
2022/08/15 02:21:28;;;;;;;4.47;2.87;;;21.80;99.90;;;;;;4849747;29;20263;-64
2022/08/15 02:24:07;;;;;;;3.50;3.20;;;21.80;99.90;;;;;;4849635;29;20198;-64
2022/08/15 02:26:47;;;;;;;3.93;3.00;;;21.80;99.90;;;;;;4851943;29;20210;-64
2022/08/15 02:29:21;;;;;;;4.43;2.83;;;21.70;99.90;;;;;;4853098;29;20191;-64
2022/08/15 02:31:54;;;;;;;3.80;3.10;;;21.70;99.90;;;;;;4845464;29;20279;-64
2022/08/15 02:34:25;;;;;;;3.70;3.17;;;21.70;99.90;;;;;;4850043;29;20208;-64
2022/08/15 02:37:18;;;;;;;3.30;3.00;;;21.60;99.90;;;;;;4847196;29;20964;-64
2022/08/15 02:39:52;;;;;;;3.97;3.20;;;21.60;99.90;;;;;;4849644;29;20264;-64
2022/08/15 02:42:27;;;;;;;3.23;3.03;;;21.60;99.90;;;;;;4851276;29;20194;-64
2022/08/15 02:44:57;;;;;;;3.30;3.10;;;21.60;99.90;;;;;;4851232;29;20216;-61
2022/08/15 02:47:26;;;;;;;6.27;3.00;;;21.60;99.90;;;;;;4844539;29;20242;-61
2022/08/15 02:49:54;;;;;;;3.87;3.10;;;21.60;99.90;;;;;;4841259;29;20206;-61
2022/08/15 02:52:23;;;;;;;3.40;3.10;;;21.50;99.90;;;;;;4852799;29;20215;-61
2022/08/15 02:54:52;;;;;;;3.47;3.20;;;21.50;99.90;;;;;;4854328;29;20295;-61
2022/08/15 02:57:31;;;;;;;3.67;3.00;;;21.50;99.90;;;;;;4848999;29;20211;-61
2022/08/15 03:00:22;;;;;;;5.43;3.43;;;21.50;99.90;;;;;;4844232;29;20556;-61
2022/08/15 03:02:57;;;;;;;6.90;3.33;;;21.50;99.90;;;;;;4857206;29;20547;-61
2022/08/15 03:05:29;;;;;;;4.83;3.20;;;21.40;99.90;;;;;;4844414;29;20671;-61
2022/08/15 03:07:58;;;;;;;3.43;3.20;;;21.40;99.90;;;;;;4851752;29;20226;-62
2022/08/15 03:10:29;;;;;;;3.53;3.23;;;21.40;99.90;;;;;;4848807;29;20310;-61
2022/08/15 03:13:01;;;;;;;3.50;3.20;;;21.50;99.90;;;;;;4853078;29;20310;-61
2022/08/15 03:15:38;;;;;;;3.77;3.47;;;21.40;99.90;;;;;;4851444;29;20208;-61
2022/08/15 03:18:08;;;;;;;3.40;3.10;;;21.30;99.90;;;;;;4851260;29;20299;-61
2022/08/15 03:20:39;;;;;;;4.03;3.33;;;21.30;99.90;;;;;;4846625;29;20905;-61
2022/08/15 03:23:12;;;;;;;3.90;3.40;;;21.30;99.90;;;;;;4845613;29;20278;-61
2022/08/15 03:25:42;;;;;;;3.67;3.33;;;21.20;99.90;;;;;;4842958;29;20204;-61
2022/08/15 03:28:25;;;;;;;3.47;3.13;;;21.30;99.90;;;;;;4853322;29;20319;-61
2022/08/15 03:30:59;;;;;;;4.13;3.70;;;21.20;99.90;;;;;;4846956;29;20207;-62
2022/08/15 03:33:28;;;;;;;3.97;3.30;;;21.20;99.90;;;;;;4850111;29;20266;-61
2022/08/15 03:36:19;;;;;;;5.50;3.80;;;21.20;99.90;;;;;;4848925;29;20251;-61
2022/08/15 03:38:51;;;;;;;3.87;3.53;;;21.20;99.90;;;;;;4853665;29;20223;-61
2022/08/15 03:41:23;;;;;;;5.97;3.90;;;21.20;99.90;;;;;;4846915;29;20272;-61
2022/08/15 03:43:53;;;;;;;6.13;3.90;;;21.30;99.90;;;;;;4848223;29;20598;-61
2022/08/15 03:46:23;;;;;;;4.00;3.70;;;21.30;99.90;;;;;;4843597;29;20208;-61
2022/08/15 03:48:56;;;;;;;4.60;2.90;;;21.30;99.90;;;;;;4845173;29;20207;-61
2022/08/15 03:51:28;;;;;;;4.00;3.60;;;21.20;99.90;;;;;;4850419;29;20263;-61
2022/08/15 03:54:00;;;;;;;3.67;3.30;;;21.20;99.90;;;;;;4854049;29;20278;-61
2022/08/15 03:56:32;;;;;;;3.93;3.60;;;21.20;99.90;;;;;;4847968;29;20200;-61
2022/08/15 03:59:01;;;;;;;8.53;3.77;;;21.20;99.90;;;;;;4841676;29;20279;-61
2022/08/15 04:01:35;;;;;;;4.00;3.50;;;21.10;99.90;;;;;;4843481;29;20292;-62
2022/08/15 04:04:05;;;;;;;4.57;3.20;;;21.20;99.90;;;;;;4850183;29;20199;-62
2022/08/15 04:06:45;;;;;;;3.53;3.33;;;21.10;99.90;;;;;;4846790;29;20227;-61
2022/08/15 04:09:27;;;;;;;3.80;3.40;;;21.10;99.90;;;;;;4849880;29;20207;-61
2022/08/15 04:11:58;;;;;;;3.90;3.60;;;21.10;99.90;;;;;;4847746;29;20203;-61
2022/08/15 04:14:28;;;;;;;3.30;3.10;;;21.10;99.90;;;;;;4849860;29;20207;-61
2022/08/15 04:17:04;;;;;;;4.73;3.50;;;21.00;99.90;;;;;;4848225;29;20279;-61
2022/08/15 04:19:45;;;;;;;4.30;3.07;;;21.00;99.90;;;;;;4850225;29;20219;-61
2022/08/15 04:22:18;;;;;;;3.67;3.30;;;20.90;99.90;;;;;;4848933;29;20215;-61
2022/08/15 04:25:09;;;;;;;3.70;3.50;;;20.90;99.90;;;;;;4845254;29;20203;-61
2022/08/15 04:27:41;;;;;;;5.77;3.33;;;21.00;99.90;;;;;;4846969;29;20219;-61
2022/08/15 04:30:18;;;;;;;5.70;3.10;;;21.00;99.90;;;;;;4849640;29;20307;-61
2022/08/15 04:32:49;;;;;;;5.47;3.30;;;20.90;99.90;;;;;;4848497;29;20218;-61
2022/08/15 04:35:38;;;;;;;4.43;3.30;;;20.90;99.90;;;;;;4849962;29;20712;-61
2022/08/15 04:38:08;;;;;;;5.20;3.60;;;20.80;99.90;;;;;;4842459;29;20629;-61
2022/08/15 04:40:36;;;;;;;4.80;3.40;;;20.80;99.90;;;;;;4850008;29;20199;-61
2022/08/15 04:43:25;;;;;;;3.63;3.43;;;20.80;99.90;;;;;;4850661;29;20205;-61
2022/08/15 04:45:54;;;;;;;3.63;3.37;;;20.80;99.90;;;;;;4846058;29;20219;-61
2022/08/15 04:48:26;;;;;;;3.90;3.57;;;20.80;99.90;;;;;;4858312;29;20296;-61
2022/08/15 04:50:57;;;;;;;6.47;3.93;;;20.80;99.90;;;;;;4846892;29;20210;-61
2022/08/15 04:53:33;;;;;;;3.90;3.17;;;20.80;99.90;;;;;;4848799;29;20738;-61
2022/08/15 04:56:06;;;;;;;4.10;3.70;;;20.80;99.90;;;;;;4851519;29;20766;-61
2022/08/15 04:58:54;;;;;;;5.23;3.73;;;20.80;99.90;;;;;;4850608;29;20286;-61
2022/08/15 05:01:33;;;;;;;5.83;3.50;;;20.70;99.90;;;;;;4847499;29;20216;-61
2022/08/15 05:04:23;;;;;;;7.43;4.00;;;20.80;99.90;;;;;;4850314;29;20252;-61
2022/08/15 05:06:55;;;;;;;4.43;3.57;;;20.80;99.90;;;;;;4844665;29;20271;-61
2022/08/15 05:09:23;;;;;;;4.10;3.73;;;20.80;99.90;;;;;;4846768;29;20207;-61
2022/08/15 05:11:52;;;;;;;4.97;4.00;;;20.80;99.90;;;;;;4849262;29;20282;-61
2022/08/15 05:14:39;;;;;;;4.17;3.77;;;20.80;99.90;;;;;;4849822;29;20282;-61
2022/08/15 05:17:17;;;;;;;4.83;3.50;;;20.80;99.90;;;;;;4849717;29;20229;-61
2022/08/15 05:19:52;;;;;;;4.60;4.20;;;20.70;99.90;;;;;;4849938;29;20203;-61
2022/08/15 05:22:20;;;;;;;5.87;4.20;;;20.70;99.90;;;;;;4844454;29;20204;-61
2022/08/15 05:25:04;;;;;;;5.27;3.97;;;20.70;99.90;;;;;;4848489;29;20736;-61
2022/08/15 05:27:37;;;;;;;4.63;4.20;;;20.70;99.90;;;;;;4848786;29;20228;-61
2022/08/15 05:30:12;;;;;;;5.67;4.60;;;20.70;99.90;;;;;;4847080;29;20235;-61
2022/08/15 05:32:45;;;;;;;5.73;4.03;;;20.80;99.90;;;;;;4853903;29;20227;-61
2022/08/15 05:35:18;;;;;;;4.30;4.00;;;20.80;99.90;;;;;;4848627;29;20976;-61
2022/08/15 05:37:46;;;;;;;6.27;4.30;;;20.80;99.90;;;;;;4846924;29;20665;-61
2022/08/15 05:40:17;;;;;;;5.13;4.17;;;20.80;99.90;;;;;;4848090;29;20231;-61
2022/08/15 05:42:59;;;;;;;5.10;4.40;;;20.80;99.90;;;;;;4842258;29;20253;-61
2022/08/15 05:45:36;;;;;;;4.70;4.23;;;20.70;99.90;;;;;;4846399;29;20216;-61
2022/08/15 05:48:16;;;;;;;5.10;4.23;;;20.70;99.90;;;;;;4851289;29;20211;-61
2022/08/15 05:50:53;;;;;;;4.43;4.07;;;20.70;99.90;;;;;;4858524;29;20215;-61
2022/08/15 05:53:32;;;;;;;4.97;4.43;;;20.70;99.90;;;;;;4854843;29;20219;-61
2022/08/15 05:56:11;;;;;;;5.57;4.33;;;20.70;99.90;;;;;;4851150;29;20195;-62
2022/08/15 05:58:53;;;;;;;6.40;4.57;;;20.80;99.90;;;;;;4850092;29;20572;-61
2022/08/15 06:01:25;;;;;;;6.57;4.73;;;20.70;99.90;;;;;;4847545;29;20362;-61
2022/08/15 06:03:59;;;;;;;5.53;4.57;;;20.70;99.90;;;;;;4852437;29;20195;-61
2022/08/15 06:06:31;;;;;;;6.03;4.90;;;20.70;99.90;;;;;;4848433;29;20206;-62
2022/08/15 06:09:28;;;;;;;8.30;4.77;;;20.70;99.90;;;;;;4849961;29;20788;-61
2022/08/15 06:12:03;;;;;;;7.77;4.63;;;20.70;99.90;;;;;;4847216;29;20207;-61
2022/08/15 06:14:54;;;;;;;5.17;4.80;;;20.80;99.90;;;;;;4844495;29;20211;-62
2022/08/15 06:17:28;;;;;;;5.10;4.60;;;20.90;99.90;;;;;;4854256;29;20685;-61
2022/08/15 06:20:02;;;;;;;6.23;5.03;;;20.90;99.90;;;;;;4852646;29;20281;-61
2022/08/15 06:23:05;;;;;;;5.37;4.70;;;20.90;99.90;;;;;;4850651;29;20663;-61
2022/08/15 06:25:45;;;;;;;7.50;4.93;;;20.80;99.90;;;;;;4854275;29;20207;-61
2022/08/15 06:28:40;;;;;;;7.07;4.97;;;20.90;99.90;;;;;;4856602;29;20298;-61
2022/08/15 06:31:27;;;;;;;6.93;4.97;;;20.90;99.90;;;;;;4846963;29;20210;-62
2022/08/15 06:34:19;;;;;;;9.73;5.40;;;21.00;99.90;;;;;;4849052;29;20266;-61
2022/08/15 06:37:16;;;;;;;7.33;4.77;;;21.10;99.90;;;;;;4851334;29;20235;-62
2022/08/15 06:39:58;;;;;;;7.63;5.07;;;21.30;99.90;;;;;;4859615;29;20222;-62
2022/08/15 06:42:34;;;;;;;6.10;5.50;;;21.40;99.90;;;;;;4845458;29;20211;-61
2022/08/15 06:45:11;;;;;;;6.03;4.67;;;21.40;99.90;;;;;;4847740;29;20279;-61
2022/08/15 06:47:41;;;;;;;5.60;5.10;;;21.50;99.90;;;;;;4856936;29;20689;-61
2022/08/15 06:50:18;;;;;;;6.80;4.87;;;21.70;99.90;;;;;;4848132;29;20216;-61
2022/08/15 06:52:55;;;;;;;5.47;5.00;;;21.80;99.90;;;;;;4855824;29;20207;-61
2022/08/15 06:55:46;;;;;;;12.37;5.33;;;22.00;99.90;;;;;;4853416;29;20226;-62
2022/08/15 06:58:33;;;;;;;5.70;5.20;;;22.10;99.90;;;;;;4858193;29;20224;-62
2022/08/15 07:01:31;;;;;;;7.90;5.73;;;22.10;99.90;;;;;;4854867;29;20282;-62
2022/08/15 07:04:26;;;;;;;5.10;4.57;;;22.20;99.90;;;;;;4856033;29;20211;-62
2022/08/15 07:07:10;;;;;;;9.03;5.53;;;22.30;99.90;;;;;;4850018;29;20785;-61
2022/08/15 07:09:48;;;;;;;7.10;5.10;;;22.50;99.90;;;;;;4847758;29;20222;-62
2022/08/15 07:12:31;;;;;;;5.53;5.03;;;22.50;99.90;;;;;;4847130;29;20283;-61
2022/08/15 07:15:10;;;;;;;6.47;5.80;;;22.60;99.90;;;;;;4852675;29;20211;-61
2022/08/15 07:17:48;;;;;;;5.77;5.17;;;22.60;99.90;;;;;;4855154;29;20699;-61
2022/08/15 07:20:22;;;;;;;6.63;5.43;;;22.80;99.90;;;;;;4851306;29;20637;-60
2022/08/15 07:23:19;;;;;;;7.40;5.80;;;22.90;99.90;;;;;;4850095;29;20744;-61
2022/08/15 07:25:49;;;;;;;9.03;5.70;;;22.90;99.90;;;;;;4852161;29;20658;-61
2022/08/15 07:28:24;;;;;;;6.33;5.27;;;23.20;99.90;;;;;;4847588;29;20212;-61
2022/08/15 07:31:02;;;;;;;7.07;5.43;;;23.50;99.90;;;;;;4845792;29;20270;-61
2022/08/15 07:33:40;;;;;;;5.67;5.17;;;23.80;99.90;;;;;;4854545;29;20215;-61
2022/08/15 07:36:20;;;;;;;6.83;5.00;;;23.90;99.90;;;;;;4852850;29;20251;-61
2022/08/15 07:38:58;;;;;;;10.23;5.63;;;24.10;99.90;;;;;;4853589;29;20213;-61
2022/08/15 07:41:30;;;;;;;11.40;5.73;;;24.20;99.90;;;;;;4849480;29;20223;-61
2022/08/15 07:44:20;;;;;;;8.73;5.60;;;24.50;99.90;;;;;;4848645;29;20250;-60
2022/08/15 07:46:52;;;;;;;7.73;5.73;;;24.30;99.90;;;;;;4853134;29;20209;-60
2022/08/15 07:49:28;;;;;;;7.90;5.07;;;24.20;99.90;;;;;;4851754;29;20505;-61
2022/08/15 07:52:03;;;;;;;7.23;5.53;;;24.30;99.90;;;;;;4847383;29;20569;-61
2022/08/15 07:54:45;;;;;;;9.93;5.83;;;24.20;99.90;;;;;;4850210;29;20221;-61
2022/08/15 07:57:24;;;;;;;8.30;5.50;;;24.10;99.90;;;;;;4849137;29;20212;-61
2022/08/15 08:00:22;;;;;;;8.80;5.33;;;24.10;99.90;;;;;;4845102;29;20277;-61
2022/08/15 08:03:15;;;;;;;5.43;4.90;;;24.00;99.90;;;;;;4847084;29;20205;-62
2022/08/15 08:05:54;;;;;;;6.10;5.23;;;24.00;99.90;;;;;;4850147;29;20224;-61
2022/08/15 08:08:27;;;;;;;6.63;5.03;;;24.00;99.90;;;;;;4851941;29;20581;-61
2022/08/15 08:11:20;;;;;;;5.53;4.93;;;24.10;99.90;;;;;;4845489;29;20218;-61
2022/08/15 08:13:55;;;;;;;5.37;4.87;;;24.30;99.90;;;;;;4851730;29;20198;-62
2022/08/15 08:16:34;;;;;;;5.90;5.13;;;24.40;99.90;;;;;;4852575;29;20229;-62
2022/08/15 08:19:09;;;;;;;5.23;4.83;;;24.50;99.90;;;;;;4850454;29;20828;-61
2022/08/15 08:21:51;;;;;;;7.90;5.00;;;24.70;99.90;;;;;;4851884;29;20206;-61
2022/08/15 08:24:28;;;;;;;5.67;4.80;;;24.90;99.90;;;;;;4841970;29;20201;-62
2022/08/15 08:27:06;;;;;;;6.17;5.23;;;25.00;99.90;;;;;;4845883;29;20210;-62
2022/08/15 08:29:45;;;;;;;5.80;5.30;;;25.00;99.90;;;;;;4850753;29;20871;-61
2022/08/15 08:32:28;;;;;;;7.17;5.50;;;25.00;99.90;;;;;;4850411;29;20216;-62
2022/08/15 08:35:07;;;;;;;9.67;5.27;;;25.20;99.90;;;;;;4847692;29;20226;-61
2022/08/15 08:37:47;;;;;;;19.80;5.30;;;25.40;99.90;;;;;;4851473;29;20203;-62
2022/08/15 08:43:29;;;;;;;8.87;4.50;;;25.80;99.90;;;;;;4851249;29;20199;-62
2022/08/15 08:46:04;;;;;;;8.77;5.23;;;26.60;99.90;;;;;;4842579;29;20211;-62
2022/08/15 08:48:47;;;;;;;5.03;4.73;;;27.10;99.90;;;;;;4841896;29;20199;-62
2022/08/15 08:51:30;;;;;;;4.13;3.87;;;27.20;99.90;;;;;;4843299;29;20220;-62
2022/08/15 08:54:05;;;;;;;4.83;4.30;;;27.20;99.90;;;;;;4858541;29;20210;-62
2022/08/15 08:56:41;;;;;;;6.67;4.77;;;27.10;99.90;;;;;;4847656;29;20196;-62
2022/08/15 08:59:17;;;;;;;6.05;4.28;;;26.90;99.90;;;;;;4845631;29;20212;-62
2022/08/15 09:01:49;;;;;;;4.13;3.83;;;26.80;99.90;;;;;;4846864;29;20235;-62
2022/08/15 09:04:23;;;;;;;4.88;4.20;;;26.80;99.90;;;;;;4843402;29;20202;-62
2022/08/15 09:06:53;;;;;;;4.47;4.00;;;26.60;99.90;;;;;;4844054;29;20731;-62
2022/08/15 09:09:29;;;;;;;5.05;4.30;;;26.80;99.90;;;;;;4849602;29;20204;-62
2022/08/15 09:12:04;;;;;;;4.03;3.72;;;26.90;99.90;;;;;;4846048;29;20240;-62
2022/08/15 09:14:41;;;;;;;4.63;3.33;;;27.20;99.90;;;;;;4845824;29;20228;-62
2022/08/15 09:17:34;;;;;;;4.53;4.05;;;27.50;99.90;;;;;;4848973;29;20219;-62
2022/08/15 09:20:12;;;;;;;4.80;4.40;;;27.50;99.90;;;;;;4853295;29;20205;-63
2022/08/15 09:22:50;;;;;;;4.32;3.95;;;27.80;99.90;;;;;;4852748;29;20215;-62
2022/08/15 09:25:23;;;;;;;5.55;4.40;;;28.40;99.90;;;;;;4867944;29;20211;-62
2022/08/15 09:28:06;;;;;;;3.83;3.60;;;28.40;99.90;;;;;;4847621;29;20290;-62
2022/08/15 09:30:56;;;;;;;4.85;4.20;;;28.80;99.90;;;;;;4856698;29;20674;-63
2022/08/15 09:34:01;;;;;;;4.65;4.10;;;29.20;99.90;;;;;;4853943;29;20230;-62
2022/08/15 09:36:52;;;;;;;4.82;3.58;;;29.10;99.90;;;;;;4844667;29;20865;-63
2022/08/15 09:39:36;;;;;;;4.40;4.00;;;29.10;99.90;;;;;;4833154;29;20952;-62
2022/08/15 09:42:31;;;;;;;5.10;3.92;;;29.00;99.90;;;;;;4849589;29;20212;-62
2022/08/15 09:45:25;;;;;;;4.50;3.83;;;28.40;99.90;;;;;;4847892;29;20210;-62
2022/08/15 09:48:44;;;;;;;5.28;4.53;;;28.00;99.90;;;;;;4849940;29;20198;-62
2022/08/15 09:51:47;;;;;;;4.55;4.13;;;27.60;99.90;;;;;;4848076;29;20207;-62
2022/08/15 09:54:23;;;;;;;6.00;4.30;;;27.40;99.90;;;;;;4849047;29;20219;-62
2022/08/15 09:57:34;;;;;;;6.10;4.13;;;27.40;99.90;;;;;;4849712;29;20295;-61
2022/08/15 10:00:24;;;;;;;4.53;4.23;;;27.60;99.90;;;;;;4849372;29;20330;-61
2022/08/15 10:03:23;;;;;;;4.93;4.07;;;27.60;99.90;;;;;;4845758;29;20984;-62
2022/08/15 10:06:06;;;;;;;4.80;3.90;;;27.50;99.90;;;;;;4850889;29;20195;-61
2022/08/15 10:09:22;;;;;;;6.00;4.00;;;27.60;99.90;;;;;;4846235;29;20668;-61
2022/08/15 10:12:19;;;;;;;4.80;4.25;;;27.60;99.90;;;;;;4865549;29;20314;-61
2022/08/15 10:15:02;;;;;;;6.83;4.00;;;27.50;99.90;;;;;;4861019;29;20196;-62
2022/08/15 10:17:42;;;;;;;4.00;3.63;;;27.80;99.90;;;;;;4872424;29;20233;-63
2022/08/15 10:20:52;;;;;;;4.40;4.05;;;28.50;99.90;;;;;;4875108;29;20212;-62
2022/08/15 10:23:30;;;;;;;4.10;3.75;;;29.20;99.90;;;;;;4855399;29;20586;-62
2022/08/15 10:26:28;;;;;;;4.43;3.60;;;30.00;99.90;;;;;;4851788;29;20286;-62
2022/08/15 10:29:23;;;;;;;3.45;3.25;;;30.50;99.90;;;;;;4819749;29;20241;-62
2022/08/15 10:31:55;;;;;;;4.50;3.35;;;31.10;99.90;;;;;;4845139;29;20249;-62
2022/08/15 10:34:59;;;;;;;3.53;3.03;;;31.30;99.90;;;;;;4842008;29;20208;-62
2022/08/15 10:37:31;;;;;;;3.75;3.45;;;31.30;99.90;;;;;;4843636;29;20209;-61
2022/08/15 10:40:34;;;;;;;8.63;3.70;;;30.90;99.90;;;;;;4852898;29;20206;-62
2022/08/15 10:43:23;;;;;;;5.65;4.15;;;30.80;99.90;;;;;;4852103;29;20214;-62
2022/08/15 10:46:23;;;;;;;4.88;3.40;;;30.30;99.90;;;;;;4850642;29;20692;-62
2022/08/15 10:49:08;;;;;;;6.45;3.17;;;30.10;99.90;;;;;;4851002;29;20308;-62
2022/08/15 10:51:51;;;;;;;3.55;3.10;;;31.00;99.90;;;;;;4852679;29;20644;-62
2022/08/15 10:54:34;;;;;;;3.85;3.05;;;31.60;99.90;;;;;;4849584;29;20215;-62
2022/08/15 10:57:08;;;;;;;3.33;3.03;;;32.00;99.90;;;;;;4849234;29;20223;-62
2022/08/15 10:59:42;;;;;;;4.38;2.97;;;32.00;99.90;;;;;;4853343;29;21035;-62
2022/08/15 11:02:21;;;;;;;4.47;3.50;;;32.50;99.90;;;;;;4849551;29;21240;-62
2022/08/15 11:05:09;;;;;;;4.63;3.20;;;31.90;99.90;;;;;;4838774;29;20236;-63
2022/08/15 11:07:41;;;;;;;7.38;3.83;;;31.50;99.90;;;;;;4848948;29;20203;-62
2022/08/15 11:10:13;;;;;;;6.22;3.30;;;30.80;99.90;;;;;;4851276;29;20203;-62
2022/08/15 11:12:52;;;;;;;7.55;3.28;;;31.00;99.90;;;;;;4845463;29;20704;-62
2022/08/15 11:15:27;;;;;;;3.92;3.67;;;31.50;99.90;;;;;;4830134;29;20295;-62
2022/08/15 11:18:03;;;;;;;5.95;3.65;;;31.90;99.90;;;;;;4844238;29;20318;-62
2022/08/15 11:20:53;;;;;;;4.10;3.70;;;31.60;99.90;;;;;;4843341;29;20203;-61
2022/08/15 11:23:39;;;;;;;3.75;3.45;;;30.70;99.90;;;;;;4846635;29;20235;-61
2022/08/15 11:26:13;;;;;;;3.78;3.45;;;31.00;99.90;;;;;;4844931;29;20210;-61
2022/08/15 11:28:46;;;;;;;4.05;3.60;;;30.60;99.90;;;;;;4851039;29;20563;-62
2022/08/15 11:31:25;;;;;;;4.30;3.95;;;30.50;99.90;;;;;;4846832;29;20381;-62
2022/08/15 11:34:04;;;;;;;4.50;3.88;;;30.70;99.90;;;;;;4844397;29;20291;-62
2022/08/15 11:36:56;;;;;;;4.07;3.78;;;31.20;99.90;;;;;;4844058;29;20239;-62
2022/08/15 11:39:29;;;;;;;8.55;3.88;;;31.30;99.90;;;;;;4848307;29;21230;-62
2022/08/15 11:42:04;;;;;;;5.07;3.90;;;31.30;99.90;;;;;;4847521;29;20199;-62
2022/08/15 11:44:40;;;;;;;4.47;4.07;;;31.60;99.90;;;;;;4854752;29;21043;-62
2022/08/15 11:47:14;;;;;;;4.72;3.55;;;31.30;99.90;;;;;;4845280;29;20209;-61
2022/08/15 11:49:47;;;;;;;4.28;3.58;;;31.30;99.90;;;;;;4842158;29;20206;-62
2022/08/15 11:52:26;;;;;;;5.88;3.92;;;31.50;99.90;;;;;;4845748;29;20221;-62
2022/08/15 11:55:16;;;;;;;5.07;3.80;;;31.70;99.90;;;;;;4847089;29;20815;-62
2022/08/15 11:57:59;;;;;;;7.40;4.30;;;32.00;99.90;;;;;;4850051;29;20226;-62
2022/08/15 12:00:31;;;;;;;5.95;3.97;;;31.60;99.90;;;;;;4848964;29;20199;-62
2022/08/15 12:03:17;;;;;;;6.10;3.80;;;31.20;99.90;;;;;;4852226;29;20211;-62
2022/08/15 12:06:23;;;;;;;12.43;3.97;;;31.10;99.90;;;;;;4847778;29;20857;-61
2022/08/15 12:09:09;;;;;;;4.07;3.70;;;31.40;99.90;;;;;;4845866;29;20203;-62
2022/08/15 12:11:45;;;;;;;4.32;3.90;;;31.50;99.90;;;;;;4861854;29;20203;-62
2022/08/15 12:14:22;;;;;;;6.82;4.18;;;31.50;99.90;;;;;;4846594;29;20292;-61
2022/08/15 12:16:56;;;;;;;6.10;4.30;;;31.60;99.90;;;;;;4831234;29;20321;-62
2022/08/15 12:19:47;;;;;;;4.18;3.90;;;31.20;99.90;;;;;;4844970;29;20218;-62
2022/08/15 12:22:39;;;;;;;4.18;3.78;;;31.10;99.90;;;;;;4845863;29;20223;-62
2022/08/15 12:25:23;;;;;;;3.85;3.55;;;31.00;99.90;;;;;;4848223;29;20296;-62
2022/08/15 12:28:11;;;;;;;4.03;3.80;;;30.70;99.90;;;;;;4844943;29;20213;-62
2022/08/15 12:31:04;;;;;;;4.47;3.83;;;31.00;99.90;;;;;;4845613;29;20209;-62
2022/08/15 12:33:43;;;;;;;5.20;3.85;;;31.30;99.90;;;;;;4847761;29;20546;-62
2022/08/15 12:36:21;;;;;;;8.40;3.83;;;31.30;99.90;;;;;;4846102;29;20690;-62
2022/08/15 12:39:11;;;;;;;3.92;3.60;;;31.30;99.90;;;;;;4847941;29;20211;-61
2022/08/15 12:41:43;;;;;;;4.30;3.90;;;31.30;99.90;;;;;;4849416;29;20582;-61
2022/08/15 12:44:36;;;;;;;4.28;3.95;;;31.50;99.90;;;;;;4849830;29;20660;-62
2022/08/15 12:47:07;;;;;;;4.50;4.10;;;31.40;99.90;;;;;;4848431;29;20189;-61
2022/08/15 12:49:36;;;;;;;6.88;4.10;;;31.20;99.90;;;;;;4839189;29;20203;-61
2022/08/15 12:52:19;;;;;;;4.15;3.70;;;30.60;99.90;;;;;;4848176;29;20203;-61
2022/08/15 12:54:53;;;;;;;4.43;3.90;;;30.40;99.90;;;;;;4855737;29;20346;-61
2022/08/15 12:57:25;;;;;;;6.60;4.00;;;30.50;99.90;;;;;;4856918;29;20226;-61
2022/08/15 13:00:15;;;;;;;7.13;4.00;;;30.40;99.90;;;;;;4852020;29;20643;-61
2022/08/15 13:03:09;;;;;;;5.65;4.47;;;30.60;99.90;;;;;;4857121;29;20208;-61
2022/08/15 13:05:51;;;;;;;6.03;4.15;;;31.10;99.90;;;;;;4852771;29;20200;-62
2022/08/15 13:08:41;;;;;;;7.72;4.20;;;31.20;99.90;;;;;;4853024;29;20205;-61
2022/08/15 13:11:13;;;;;;;4.88;4.43;;;31.10;99.90;;;;;;4854211;29;20290;-61
2022/08/15 13:13:44;;;;;;;4.90;4.50;;;30.80;99.90;;;;;;4855227;29;20196;-61
2022/08/15 13:16:17;;;;;;;6.82;4.25;;;30.60;99.90;;;;;;4852932;29;20258;-61
2022/08/15 13:19:09;;;;;;;6.55;4.00;;;30.40;99.90;;;;;;4856995;29;20206;-61
2022/08/15 13:24:35;;;;;;;6.70;4.30;;;30.70;99.90;;;;;;4856747;29;20230;-61
2022/08/15 13:27:05;;;;;;;4.55;4.20;;;30.70;99.90;;;;;;4856741;29;20760;-61
2022/08/15 13:29:36;;;;;;;4.35;3.92;;;30.40;99.90;;;;;;4854037;29;20192;-61
2022/08/15 13:32:23;;;;;;;4.47;4.07;;;30.40;99.90;;;;;;4853017;29;20212;-61
2022/08/15 13:34:52;;;;;;;4.57;4.18;;;30.70;99.90;;;;;;4857137;29;20253;-61
2022/08/15 13:37:21;;;;;;;3.92;3.63;;;30.90;99.90;;;;;;4852807;29;20309;-62
2022/08/15 13:40:17;;;;;;;4.20;3.80;;;31.20;99.90;;;;;;4854443;29;20706;-61
2022/08/15 13:42:55;;;;;;;5.30;3.80;;;31.30;99.90;;;;;;4856839;29;20211;-61
2022/08/15 13:45:31;;;;;;;6.43;4.40;;;31.20;99.90;;;;;;4853639;29;20201;-61
2022/08/15 13:48:24;;;;;;;4.78;3.53;;;31.00;99.90;;;;;;4855103;29;20210;-61
2022/08/15 13:50:53;;;;;;;5.60;3.85;;;31.10;99.90;;;;;;4852703;29;20211;-62
2022/08/15 13:53:22;;;;;;;4.25;3.80;;;31.40;99.90;;;;;;4849701;29;22110;-61
2022/08/15 13:56:12;;;;;;;3.83;3.53;;;31.40;99.90;;;;;;4848215;29;20216;-61
2022/08/15 13:58:59;;;;;;;6.35;4.00;;;31.50;99.90;;;;;;4851344;29;20644;-61